createdAt,value
2019-03-29T00:01:27.133Z,13.30
2019-03-29T00:03:55.357Z,12.50
2019-03-29T00:06:23.646Z,13.97
2019-03-29T00:08:51.881Z,12.40
2019-03-29T00:11:20.060Z,13.17
2019-03-29T00:13:48.281Z,12.87
2019-03-29T00:16:16.528Z,13.87
2019-03-29T00:18:44.808Z,14.60
2019-03-29T00:21:13.187Z,13.90
2019-03-29T00:23:41.625Z,13.67
2019-03-29T00:26:09.814Z,14.00
2019-03-29T00:28:38.029Z,15.17
2019-03-29T00:31:06.260Z,14.53
2019-03-29T00:33:34.446Z,13.10
2019-03-29T00:36:02.636Z,13.63
2019-03-29T00:38:30.822Z,14.30
2019-03-29T00:40:59.227Z,15.50
2019-03-29T00:43:27.559Z,14.73
2019-03-29T00:45:55.745Z,15.17
2019-03-29T00:48:23.944Z,15.33
2019-03-29T00:50:52.132Z,15.57
2019-03-29T00:53:20.393Z,14.53
2019-03-29T00:55:48.584Z,14.30
2019-03-29T00:58:16.840Z,15.33
2019-03-29T01:00:45.158Z,15.60
2019-03-29T01:03:13.431Z,16.93
2019-03-29T01:05:41.706Z,15.47
2019-03-29T01:08:10.565Z,16.90
2019-03-29T01:10:39.231Z,16.50
2019-03-29T01:13:07.434Z,16.73
2019-03-29T01:15:35.965Z,16.27
2019-03-29T01:18:04.984Z,16.53
2019-03-29T01:20:33.196Z,17.10
2019-03-29T01:23:01.485Z,17.20
2019-03-29T01:25:29.720Z,15.40
2019-03-29T01:27:58.000Z,17.30
2019-03-29T01:30:26.225Z,17.20
2019-03-29T01:32:54.437Z,16.80
2019-03-29T01:35:22.669Z,16.67
2019-03-29T01:37:50.860Z,18.90
2019-03-29T01:40:20.591Z,18.27
2019-03-29T01:42:48.825Z,18.33
2019-03-29T01:45:17.007Z,18.10
2019-03-29T01:47:45.204Z,18.00
2019-03-29T01:50:13.425Z,17.80
2019-03-29T01:52:41.684Z,19.00
2019-03-29T01:55:10.038Z,17.83
2019-03-29T01:57:38.225Z,19.07
2019-03-29T02:00:06.983Z,17.33
2019-03-29T02:02:35.177Z,17.93
2019-03-29T02:05:04.536Z,17.77
2019-03-29T02:07:32.736Z,17.33
2019-03-29T02:10:00.956Z,17.87
2019-03-29T02:12:29.160Z,16.97
2019-03-29T02:14:57.351Z,18.23
2019-03-29T02:17:25.536Z,16.27
2019-03-29T02:19:53.732Z,16.73
2019-03-29T02:22:21.933Z,16.77
2019-03-29T02:24:50.293Z,17.03
2019-03-29T02:27:18.579Z,16.60
2019-03-29T02:29:46.837Z,15.50
2019-03-29T02:32:15.178Z,15.67
2019-03-29T02:34:43.848Z,15.83
2019-03-29T02:37:12.440Z,14.67
2019-03-29T02:39:40.642Z,14.40
2019-03-29T02:42:08.831Z,15.30
2019-03-29T02:44:37.032Z,14.33
2019-03-29T02:47:05.249Z,13.57
2019-03-29T02:49:33.472Z,14.67
2019-03-29T02:52:01.676Z,13.40
2019-03-29T02:54:29.984Z,13.30
2019-03-29T02:56:58.325Z,12.70
2019-03-29T02:59:26.518Z,12.50
2019-03-29T03:01:54.714Z,14.13
2019-03-29T03:04:22.937Z,13.50
2019-03-29T03:06:51.157Z,14.90
2019-03-29T03:09:19.382Z,12.97
2019-03-29T03:11:47.641Z,14.37
2019-03-29T03:14:15.825Z,13.73
2019-03-29T03:16:44.142Z,13.43
2019-03-29T03:19:12.400Z,14.77
2019-03-29T03:21:40.628Z,13.60
2019-03-29T03:24:08.886Z,13.47
2019-03-29T03:26:37.127Z,13.90
2019-03-29T03:29:05.315Z,14.17
2019-03-29T03:31:33.540Z,13.77
2019-03-29T03:34:01.876Z,14.50
2019-03-29T03:36:30.123Z,15.60
2019-03-29T03:38:58.397Z,13.53
2019-03-29T03:41:26.605Z,14.93
2019-03-29T03:43:54.823Z,13.53
2019-03-29T03:46:23.085Z,15.53
2019-03-29T03:48:51.272Z,13.87
2019-03-29T03:51:19.480Z,15.10
2019-03-29T03:53:47.668Z,15.30
2019-03-29T03:56:15.864Z,15.40
2019-03-29T03:58:44.757Z,15.93
2019-03-29T04:01:13.289Z,16.37
2019-03-29T04:03:41.518Z,16.87
2019-03-29T04:06:09.741Z,15.90
2019-03-29T04:08:38.025Z,16.80
2019-03-29T04:11:06.213Z,17.60
2019-03-29T04:13:34.573Z,17.67
2019-03-29T04:16:02.895Z,18.20
2019-03-29T04:18:31.103Z,19.53
2019-03-29T04:20:59.321Z,19.03
2019-03-29T04:23:27.760Z,19.63
2019-03-29T04:25:55.977Z,18.50
2019-03-29T04:28:24.264Z,19.03
2019-03-29T04:30:52.506Z,19.50
2019-03-29T04:33:20.711Z,18.20
2019-03-29T04:35:48.924Z,19.67
2019-03-29T04:38:17.213Z,19.10
2019-03-29T04:40:45.392Z,20.53
2019-03-29T04:43:13.600Z,20.60
2019-03-29T04:45:41.809Z,20.83
2019-03-29T04:48:10.033Z,20.20
2019-03-29T04:50:38.232Z,19.40
2019-03-29T04:53:06.466Z,20.83
2019-03-29T04:55:34.689Z,20.80
2019-03-29T04:58:02.901Z,21.93
2019-03-29T05:00:31.196Z,21.60
2019-03-29T05:02:59.429Z,20.37
2019-03-29T05:05:27.652Z,21.00
2019-03-29T05:07:55.900Z,19.37
2019-03-29T05:10:24.102Z,20.90
2019-03-29T05:12:52.368Z,21.43
2019-03-29T05:15:20.594Z,21.17
2019-03-29T05:17:48.821Z,20.67
2019-03-29T05:20:17.089Z,21.97
2019-03-29T05:22:48.007Z,20.63
2019-03-29T05:25:16.267Z,22.90
2019-03-29T05:27:45.731Z,19.60
2019-03-29T05:30:14.232Z,20.30
2019-03-29T05:32:42.552Z,21.70
2019-03-29T05:35:10.744Z,22.07
2019-03-29T05:37:38.956Z,23.57
2019-03-29T05:40:07.169Z,22.10
2019-03-29T05:42:35.357Z,22.53
2019-03-29T05:45:04.952Z,22.80
2019-03-29T05:47:33.216Z,23.07
2019-03-29T05:50:01.401Z,23.03
2019-03-29T05:52:29.645Z,23.87
2019-03-29T05:54:57.904Z,21.10
2019-03-29T05:57:26.088Z,22.83
2019-03-29T05:59:54.319Z,21.13
2019-03-29T06:02:22.616Z,23.20
2019-03-29T06:04:50.807Z,25.50
2019-03-29T06:07:19.025Z,24.27
2019-03-29T06:09:47.244Z,23.00
2019-03-29T06:12:15.474Z,23.17
2019-03-29T06:14:43.742Z,23.30
2019-03-29T06:17:12.091Z,22.30
2019-03-29T06:19:40.302Z,23.10
2019-03-29T06:22:08.527Z,21.73
2019-03-29T06:24:37.625Z,23.47
2019-03-29T06:27:05.850Z,22.10
2019-03-29T06:29:34.069Z,22.83
2019-03-29T06:32:03.178Z,22.70
2019-03-29T06:34:31.368Z,21.77
2019-03-29T06:37:00.149Z,21.70
2019-03-29T06:39:29.152Z,22.70
2019-03-29T06:41:57.432Z,22.20
2019-03-29T06:44:25.724Z,22.30
2019-03-29T06:46:53.942Z,20.50
2019-03-29T06:49:22.128Z,23.47
2019-03-29T06:51:50.321Z,22.17
2019-03-29T06:54:18.510Z,22.30
2019-03-29T06:56:46.696Z,22.93
2019-03-29T06:59:14.886Z,23.07
2019-03-29T07:01:46.253Z,20.40
2019-03-29T07:04:13.012Z,22.90
2019-03-29T07:06:41.200Z,21.43
2019-03-29T07:09:09.465Z,21.30
2019-03-29T07:11:39.670Z,21.57
2019-03-29T07:14:07.628Z,21.03
2019-03-29T07:16:35.910Z,21.97
2019-03-29T07:19:05.059Z,21.17
2019-03-29T07:21:33.492Z,23.03
2019-03-29T07:24:01.719Z,22.27
2019-03-29T07:26:29.919Z,22.03
2019-03-29T07:28:58.101Z,22.27
2019-03-29T07:31:26.285Z,21.97
2019-03-29T07:33:54.497Z,22.20
2019-03-29T07:36:22.733Z,21.77
2019-03-29T07:38:50.921Z,23.43
2019-03-29T07:41:31.124Z,22.03
2019-03-29T07:43:49.037Z,23.20
2019-03-29T07:46:17.236Z,24.00
2019-03-29T07:48:45.434Z,23.50
2019-03-29T07:51:13.648Z,23.43
2019-03-29T07:53:44.834Z,23.73
2019-03-29T07:56:11.785Z,22.37
2019-03-29T07:58:39.988Z,22.60
2019-03-29T08:01:08.513Z,23.30
2019-03-29T08:03:37.080Z,23.17
2019-03-29T08:06:05.289Z,21.63
2019-03-29T08:08:34.532Z,22.67
2019-03-29T08:11:03.292Z,23.37
2019-03-29T08:13:31.468Z,23.80
2019-03-29T08:15:59.674Z,23.30
2019-03-29T08:18:27.886Z,22.47
2019-03-29T08:20:56.113Z,21.37
2019-03-29T08:23:24.322Z,21.20
2019-03-29T08:25:52.511Z,23.27
2019-03-29T08:28:20.696Z,21.70
2019-03-29T08:30:48.889Z,22.60
2019-03-29T08:33:17.078Z,22.43
2019-03-29T08:35:45.349Z,21.07
2019-03-29T08:38:13.601Z,22.53
2019-03-29T08:40:44.974Z,21.33
2019-03-29T08:43:11.704Z,22.40
2019-03-29T08:45:39.921Z,21.70
2019-03-29T08:48:08.153Z,22.00
2019-03-29T08:50:36.412Z,20.10
2019-03-29T08:53:04.664Z,21.47
2019-03-29T08:55:45.116Z,19.27
2019-03-29T08:58:02.810Z,19.13
2019-03-29T09:00:31.746Z,21.63
2019-03-29T09:03:00.515Z,19.47
2019-03-29T09:05:28.738Z,20.53
2019-03-29T09:07:57.228Z,21.23
2019-03-29T09:10:26.290Z,20.27
2019-03-29T09:12:54.604Z,20.80
2019-03-29T09:15:22.817Z,20.13
2019-03-29T09:17:51.000Z,19.23
2019-03-29T09:20:19.233Z,20.50
2019-03-29T09:22:47.439Z,21.33
2019-03-29T09:25:15.638Z,20.43
2019-03-29T09:27:43.885Z,21.80
2019-03-29T09:30:12.198Z,19.97
2019-03-29T09:32:40.455Z,19.20
2019-03-29T09:35:08.681Z,19.93
2019-03-29T09:37:36.871Z,18.67
2019-03-29T09:40:06.337Z,18.17
2019-03-29T09:42:34.582Z,17.57
2019-03-29T09:45:03.163Z,18.97
2019-03-29T09:47:37.003Z,19.10
2019-03-29T09:50:01.308Z,17.37
2019-03-29T09:52:29.504Z,16.67
2019-03-29T09:54:57.711Z,18.10
2019-03-29T09:57:36.786Z,16.90
2019-03-29T09:59:55.882Z,19.33
2019-03-29T10:02:24.060Z,18.17
2019-03-29T10:04:52.255Z,17.47
2019-03-29T10:07:20.487Z,17.83
2019-03-29T10:09:48.694Z,15.07
2019-03-29T10:12:16.893Z,14.43
2019-03-29T10:14:45.100Z,16.50
2019-03-29T10:17:13.292Z,17.43
2019-03-29T10:19:41.480Z,16.63
2019-03-29T10:22:09.727Z,16.60
2019-03-29T10:24:37.938Z,15.43
2019-03-29T10:27:06.154Z,17.00
2019-03-29T10:29:34.377Z,14.40
2019-03-29T10:32:05.476Z,13.67
2019-03-29T10:34:32.464Z,13.00
2019-03-29T10:37:01.660Z,13.13
2019-03-29T10:39:29.855Z,13.23
2019-03-29T10:41:58.073Z,13.93
2019-03-29T10:44:26.268Z,12.50
2019-03-29T10:46:54.489Z,10.20
2019-03-29T10:49:22.704Z,11.20
2019-03-29T10:51:50.884Z,9.73
2019-03-29T10:54:19.145Z,9.33
2019-03-29T10:56:47.375Z,10.80
2019-03-29T10:59:26.779Z,10.93
2019-03-29T11:01:45.504Z,10.10
2019-03-29T11:04:13.696Z,10.47
2019-03-29T11:06:41.877Z,10.57
2019-03-29T11:09:10.106Z,9.00
2019-03-29T11:11:38.321Z,9.37
2019-03-29T11:14:06.529Z,8.93
2019-03-29T11:16:34.784Z,8.77
2019-03-29T11:19:02.998Z,8.93
2019-03-29T11:21:31.219Z,9.10
2019-03-29T11:23:59.515Z,7.83
2019-03-29T11:26:27.728Z,4.03
2019-03-29T11:28:55.928Z,5.10
2019-03-29T11:31:25.636Z,4.27
2019-03-29T11:33:54.073Z,5.80
2019-03-29T11:36:22.298Z,6.70
2019-03-29T11:38:50.467Z,5.60
2019-03-29T11:41:18.652Z,5.83
2019-03-29T11:43:46.893Z,4.93
2019-03-29T11:46:15.059Z,4.00
2019-03-29T11:48:43.237Z,5.00
2019-03-29T11:51:19.394Z,3.70
2019-03-29T11:53:41.795Z,3.33
2019-03-29T11:56:09.965Z,3.87
2019-03-29T11:58:38.183Z,3.63
2019-03-29T12:01:07.252Z,3.73
2019-03-29T12:03:35.432Z,3.53
2019-03-29T12:06:03.628Z,3.60
2019-03-29T12:08:31.833Z,3.57
2019-03-29T12:11:00.041Z,3.90
2019-03-29T12:13:40.482Z,3.53
2019-03-29T12:15:58.157Z,4.20
2019-03-29T12:18:26.411Z,4.30
2019-03-29T12:20:54.587Z,4.60
2019-03-29T12:23:22.833Z,4.17
2019-03-29T12:25:51.079Z,4.40
2019-03-29T12:28:19.280Z,4.20
2019-03-29T12:30:47.500Z,3.97
2019-03-29T12:33:15.748Z,3.77
2019-03-29T12:35:43.960Z,3.80
2019-03-29T12:38:12.140Z,4.20
2019-03-29T12:40:40.360Z,4.30
2019-03-29T12:43:08.561Z,4.37
2019-03-29T12:45:36.777Z,3.80
2019-03-29T12:48:04.981Z,4.47
2019-03-29T12:50:33.199Z,4.50
2019-03-29T12:53:01.399Z,4.30
2019-03-29T12:55:29.600Z,4.30
2019-03-29T12:57:57.929Z,4.53
2019-03-29T13:00:26.100Z,4.50
2019-03-29T13:02:54.304Z,4.10
2019-03-29T13:05:22.482Z,4.77
2019-03-29T13:07:53.091Z,4.53
2019-03-29T13:10:20.592Z,5.03
2019-03-29T13:12:48.792Z,5.40
2019-03-29T13:15:17.010Z,4.50
2019-03-29T13:17:45.180Z,4.87
2019-03-29T13:20:13.465Z,5.00
2019-03-29T13:22:41.730Z,4.97
2019-03-29T13:25:09.972Z,5.23
2019-03-29T13:27:38.192Z,5.30
2019-03-29T13:30:07.380Z,6.10
2019-03-29T13:32:35.628Z,5.70
2019-03-29T13:35:04.980Z,5.97
2019-03-29T13:37:33.193Z,5.67
2019-03-29T13:40:01.397Z,6.33
2019-03-29T13:42:29.596Z,5.60
2019-03-29T13:44:57.772Z,6.33
2019-03-29T13:47:25.982Z,6.60
2019-03-29T13:49:54.165Z,6.47
2019-03-29T13:52:22.390Z,6.10
2019-03-29T13:54:50.625Z,6.60
2019-03-29T13:57:18.795Z,6.00
2019-03-29T13:59:47.005Z,6.33
2019-03-29T14:02:15.184Z,6.93
2019-03-29T14:04:43.356Z,6.53
2019-03-29T14:07:11.587Z,7.33
2019-03-29T14:09:39.859Z,6.70
2019-03-29T14:12:08.040Z,6.87
2019-03-29T14:14:38.461Z,7.97
2019-03-29T14:17:06.161Z,7.07
2019-03-29T14:19:34.372Z,7.20
2019-03-29T14:22:02.589Z,6.30
2019-03-29T14:24:30.764Z,6.37
2019-03-29T14:26:58.987Z,7.10
2019-03-29T14:29:27.174Z,6.90
2019-03-29T14:31:55.367Z,6.23
2019-03-29T14:34:23.544Z,6.63
2019-03-29T14:36:51.749Z,6.90
2019-03-29T14:39:19.996Z,7.33
2019-03-29T14:41:48.168Z,6.27
2019-03-29T14:44:16.346Z,6.87
2019-03-29T14:46:44.590Z,6.43
2019-03-29T14:49:12.817Z,6.90
2019-03-29T14:51:41.021Z,6.93
2019-03-29T14:54:09.211Z,7.20
2019-03-29T14:56:37.400Z,7.03
2019-03-29T14:59:05.589Z,7.73
2019-03-29T15:01:33.837Z,6.47
2019-03-29T15:04:02.022Z,6.90
2019-03-29T15:06:30.224Z,6.90
2019-03-29T15:08:58.480Z,7.70
2019-03-29T15:11:26.692Z,6.80
2019-03-29T15:13:54.913Z,6.70
2019-03-29T15:16:23.142Z,6.60
2019-03-29T15:18:51.449Z,7.20
2019-03-29T15:21:19.663Z,6.57
2019-03-29T15:23:47.834Z,6.63
2019-03-29T15:26:16.035Z,6.50
2019-03-29T15:28:44.203Z,6.77
2019-03-29T15:31:13.665Z,6.17
2019-03-29T15:33:41.907Z,6.07
2019-03-29T15:36:10.190Z,6.30
2019-03-29T15:38:38.375Z,5.70
2019-03-29T15:41:06.573Z,6.47
2019-03-29T15:43:34.797Z,5.53
2019-03-29T15:46:02.988Z,5.90
2019-03-29T15:48:31.163Z,6.27
2019-03-29T15:50:59.400Z,6.20
2019-03-29T15:53:27.681Z,6.10
2019-03-29T15:55:55.856Z,5.40
2019-03-29T15:58:24.073Z,5.90
2019-03-29T16:00:52.361Z,6.10
2019-03-29T16:03:20.608Z,5.33
2019-03-29T16:05:48.802Z,5.27
2019-03-29T16:08:17.005Z,6.10
2019-03-29T16:10:45.235Z,6.63
2019-03-29T16:13:13.451Z,5.57
2019-03-29T16:15:41.669Z,5.73
2019-03-29T16:18:09.881Z,5.80
2019-03-29T16:20:38.120Z,5.40
2019-03-29T16:23:06.364Z,6.27
2019-03-29T16:25:34.548Z,5.60
2019-03-29T16:28:02.769Z,6.00
2019-03-29T16:30:30.966Z,6.03
2019-03-29T16:32:59.230Z,5.43
2019-03-29T16:35:27.454Z,6.37
2019-03-29T16:37:57.345Z,5.60
2019-03-29T16:40:25.569Z,6.43
2019-03-29T16:42:53.744Z,6.50
2019-03-29T16:45:21.977Z,6.40
2019-03-29T16:47:50.163Z,6.67
2019-03-29T16:50:18.428Z,6.23
2019-03-29T16:52:46.604Z,6.30
2019-03-29T16:55:14.842Z,6.63
2019-03-29T16:57:43.040Z,6.60
2019-03-29T17:00:12.531Z,7.47
2019-03-29T17:02:41.205Z,7.40
2019-03-29T17:05:09.417Z,6.70
2019-03-29T17:07:37.622Z,7.13
2019-03-29T17:10:06.786Z,8.97
2019-03-29T17:12:34.993Z,10.27
2019-03-29T17:15:03.241Z,10.20
2019-03-29T17:17:31.428Z,7.40
2019-03-29T17:19:59.623Z,7.77
2019-03-29T17:22:27.829Z,7.00
2019-03-29T17:24:57.283Z,7.43
2019-03-29T17:27:26.650Z,7.93
2019-03-29T17:29:54.844Z,7.97
2019-03-29T17:32:23.028Z,9.40
2019-03-29T17:34:51.208Z,8.10
2019-03-29T17:37:19.433Z,7.83
2019-03-29T17:39:47.676Z,8.70
2019-03-29T17:42:15.867Z,8.80
2019-03-29T17:44:44.047Z,8.73
2019-03-29T17:47:12.268Z,8.67
2019-03-29T17:49:40.486Z,10.47
2019-03-29T17:52:08.713Z,9.77
2019-03-29T17:54:36.989Z,10.87
2019-03-29T17:57:05.197Z,9.03
2019-03-29T17:59:33.442Z,11.30
2019-03-29T18:02:09.134Z,11.73
2019-03-29T18:04:31.531Z,8.40
2019-03-29T18:06:59.719Z,9.53
2019-03-29T18:09:28.992Z,10.03
2019-03-29T18:11:57.171Z,10.10
2019-03-29T18:14:25.356Z,8.73
2019-03-29T18:16:53.569Z,9.40
2019-03-29T18:19:21.797Z,8.67
2019-03-29T18:21:50.008Z,8.43
2019-03-29T18:24:18.290Z,8.20
2019-03-29T18:26:46.543Z,8.50
2019-03-29T18:29:14.728Z,8.43
2019-03-29T18:31:42.908Z,7.80
2019-03-29T18:34:11.092Z,11.00
2019-03-29T18:36:39.283Z,11.17
2019-03-29T18:39:07.504Z,11.40
2019-03-29T18:41:35.729Z,11.57
2019-03-29T18:44:03.949Z,9.23
2019-03-29T18:46:43.972Z,9.60
2019-03-29T18:49:02.105Z,10.70
2019-03-29T18:51:30.318Z,10.93
2019-03-29T18:53:58.545Z,14.30
2019-03-29T18:56:26.751Z,20.80
2019-03-29T18:58:54.951Z,18.43
2019-03-29T19:01:23.212Z,13.77
2019-03-29T19:03:51.450Z,14.20
2019-03-29T19:06:19.776Z,21.50
2019-03-29T19:08:48.161Z,16.93
2019-03-29T19:11:16.509Z,14.03
2019-03-29T19:13:44.707Z,13.90
2019-03-29T19:16:13.867Z,12.93
2019-03-29T19:18:42.064Z,12.70
2019-03-29T19:21:10.332Z,13.90
2019-03-29T19:23:38.601Z,13.67
2019-03-29T19:26:06.795Z,15.10
2019-03-29T19:28:35.021Z,14.50
2019-03-29T19:31:03.221Z,14.30
2019-03-29T19:33:31.404Z,13.70
2019-03-29T19:35:59.636Z,14.43
2019-03-29T19:38:27.941Z,14.90
2019-03-29T19:40:56.192Z,13.20
2019-03-29T19:43:24.467Z,13.10
2019-03-29T19:45:52.650Z,14.20
2019-03-29T19:48:20.844Z,11.83
2019-03-29T19:50:49.082Z,12.13
2019-03-29T19:53:17.253Z,12.70
2019-03-29T19:55:45.446Z,12.50
2019-03-29T19:58:13.683Z,13.70
2019-03-29T20:00:42.736Z,16.00
2019-03-29T20:03:11.045Z,16.50
2019-03-29T20:05:39.300Z,16.20
2019-03-29T20:08:07.520Z,15.17
2019-03-29T20:10:35.749Z,16.03
2019-03-29T20:13:04.041Z,14.30
2019-03-29T20:15:32.310Z,14.60
2019-03-29T20:18:00.488Z,14.30
2019-03-29T20:20:28.691Z,13.90
2019-03-29T20:22:57.551Z,16.33
2019-03-29T20:25:26.196Z,15.47
2019-03-29T20:27:58.115Z,15.07
2019-03-29T20:30:25.274Z,14.47
2019-03-29T20:32:53.494Z,16.30
2019-03-29T20:35:21.772Z,16.90
2019-03-29T20:37:50.009Z,17.10
2019-03-29T20:40:18.188Z,17.20
2019-03-29T20:42:46.417Z,17.87
2019-03-29T20:45:14.765Z,16.50
2019-03-29T20:47:43.108Z,16.10
2019-03-29T20:50:11.375Z,15.73
2019-03-29T20:52:40.871Z,15.27
2019-03-29T20:55:09.048Z,13.33
2019-03-29T20:57:37.305Z,14.50
2019-03-29T21:00:07.061Z,14.80
2019-03-29T21:02:35.273Z,16.77
2019-03-29T21:05:04.740Z,15.90
2019-03-29T21:07:33.188Z,15.30
2019-03-29T21:10:01.418Z,14.90
2019-03-29T21:12:29.628Z,13.63
2019-03-29T21:14:58.130Z,14.30
2019-03-29T21:17:26.317Z,14.77
2019-03-29T21:19:54.572Z,14.40
2019-03-29T21:22:22.848Z,13.80
2019-03-29T21:24:51.058Z,13.30
2019-03-29T21:27:19.261Z,13.27
2019-03-29T21:29:47.447Z,14.03
2019-03-29T21:32:15.713Z,14.17
2019-03-29T21:34:43.972Z,14.07
2019-03-29T21:37:12.193Z,14.80
2019-03-29T21:39:40.423Z,14.37
2019-03-29T21:42:08.644Z,14.27
2019-03-29T21:44:36.910Z,15.30
2019-03-29T21:47:05.083Z,14.43
2019-03-29T21:49:33.317Z,14.80
2019-03-29T21:52:01.528Z,13.43
2019-03-29T21:54:29.720Z,14.33
2019-03-29T21:56:59.305Z,13.17
2019-03-29T21:59:27.533Z,13.10
2019-03-29T22:01:55.765Z,12.67
2019-03-29T22:04:23.992Z,12.13
2019-03-29T22:06:52.273Z,13.23
2019-03-29T22:09:20.458Z,14.20
2019-03-29T22:11:48.689Z,12.53
2019-03-29T22:14:16.905Z,13.47
2019-03-29T22:16:45.100Z,16.53
2019-03-29T22:19:13.286Z,17.70
2019-03-29T22:21:41.537Z,14.60
2019-03-29T22:24:09.757Z,14.03
2019-03-29T22:26:37.943Z,14.50
2019-03-29T22:29:06.125Z,15.23
2019-03-29T22:31:34.328Z,13.70
2019-03-29T22:34:02.557Z,13.13
2019-03-29T22:36:30.809Z,13.67
2019-03-29T22:38:59.013Z,12.60
2019-03-29T22:41:27.215Z,13.60
2019-03-29T22:43:55.436Z,13.03
2019-03-29T22:46:23.661Z,14.10
2019-03-29T22:48:53.376Z,14.20
2019-03-29T22:51:21.812Z,13.30
2019-03-29T22:53:50.029Z,13.83
2019-03-29T22:56:18.316Z,13.67
2019-03-29T22:58:46.595Z,13.07
2019-03-29T23:01:14.816Z,14.80
2019-03-29T23:03:43.039Z,14.37
2019-03-29T23:06:11.346Z,13.67
2019-03-29T23:08:39.537Z,14.90
2019-03-29T23:11:07.727Z,14.30
2019-03-29T23:13:35.934Z,14.13
2019-03-29T23:16:04.128Z,15.17
2019-03-29T23:18:33.361Z,13.73
2019-03-29T23:21:01.577Z,13.60
2019-03-29T23:23:29.763Z,14.80
2019-03-29T23:25:57.994Z,14.40
2019-03-29T23:28:26.205Z,15.30
2019-03-29T23:30:54.425Z,14.47
2019-03-29T23:33:22.641Z,14.73
2019-03-29T23:35:50.853Z,14.60
2019-03-29T23:38:19.090Z,15.67
2019-03-29T23:40:47.313Z,15.57
2019-03-29T23:43:15.503Z,15.00
2019-03-29T23:45:43.759Z,13.83
2019-03-29T23:48:12.032Z,13.90
2019-03-29T23:50:40.219Z,13.07
2019-03-29T23:53:09.376Z,15.10
2019-03-29T23:55:37.637Z,14.03
2019-03-29T23:58:05.876Z,13.80
